Time;durP1;ratioP1;P1;durP2;ratioP2;P2;SDS_P1;SDS_P2;PMS_P1;PMS_P2;Temp;Humidity;BMP_temperature;BMP_pressure;BME280_temperature;BME280_humidity;BME280_pressure;Samples;Min_cycle;Max_cycle;Signal;HPM_P1;HPM_P2
2021/03/22 00:01:14;;;;;;;31.63;8.70;;;10.00;93.50;;;;;;5041163;28;20562;-75
2021/03/22 00:03:41;;;;;;;34.90;8.10;;;10.00;93.60;;;;;;5022624;28;20452;-74
2021/03/22 00:06:08;;;;;;;34.85;9.15;;;10.00;93.50;;;;;;5040462;28;20421;-75
2021/03/22 00:08:35;;;;;;;32.40;8.30;;;10.00;93.60;;;;;;5041193;28;20429;-75
2021/03/22 00:11:02;;;;;;;32.72;8.30;;;10.00;93.60;;;;;;5023178;28;20439;-75
2021/03/22 00:13:29;;;;;;;31.70;8.18;;;10.00;93.50;;;;;;5046245;28;20424;-75
2021/03/22 00:15:59;;;;;;;29.08;8.00;;;10.00;93.40;;;;;;5045246;28;20425;-74
2021/03/22 00:18:29;;;;;;;32.13;8.18;;;10.00;93.40;;;;;;5048723;28;20433;-75
2021/03/22 00:20:57;;;;;;;32.38;7.93;;;9.90;93.30;;;;;;5045794;28;20425;-75
2021/03/22 00:23:24;;;;;;;42.80;9.50;;;9.90;93.40;;;;;;5047440;28;20789;-75
2021/03/22 00:25:50;;;;;;;29.08;8.40;;;10.00;93.50;;;;;;5045705;28;20490;-74
2021/03/22 00:28:18;;;;;;;34.92;8.68;;;10.00;93.40;;;;;;5048378;28;20424;-76
2021/03/22 00:30:46;;;;;;;35.13;8.20;;;9.90;93.10;;;;;;5046983;28;20459;-74
2021/03/22 00:33:14;;;;;;;32.47;8.27;;;9.90;92.80;;;;;;5047324;28;20481;-75
2021/03/22 00:35:40;;;;;;;25.23;7.83;;;9.90;92.70;;;;;;5031180;28;20421;-75
2021/03/22 00:38:09;;;;;;;30.30;8.15;;;9.90;92.80;;;;;;5048033;28;20547;-74
2021/03/22 00:40:37;;;;;;;30.58;8.20;;;9.90;92.90;;;;;;5048392;28;20781;-75
2021/03/22 00:43:04;;;;;;;32.95;8.48;;;9.80;93.10;;;;;;5048167;28;20425;-75
2021/03/22 00:45:30;;;;;;;36.65;9.23;;;9.90;93.20;;;;;;5048086;28;20916;-74
2021/03/22 00:47:56;;;;;;;37.25;9.10;;;9.90;93.40;;;;;;5032396;28;20961;-75
2021/03/22 00:50:27;;;;;;;35.50;9.18;;;9.90;93.40;;;;;;5046701;28;20805;-76
2021/03/22 00:52:54;;;;;;;32.78;8.30;;;9.90;93.40;;;;;;5047517;28;20995;-76
2021/03/22 00:55:22;;;;;;;34.47;8.43;;;9.90;93.20;;;;;;5046995;28;22250;-75
2021/03/22 00:57:49;;;;;;;37.78;9.30;;;9.80;93.40;;;;;;5049134;28;20429;-76
2021/03/22 01:00:23;;;;;;;39.80;9.13;;;9.90;93.60;;;;;;5044702;28;20440;-74
2021/03/22 01:02:50;;;;;;;39.13;8.93;;;9.90;93.70;;;;;;5028557;28;20475;-75
2021/03/22 01:05:17;;;;;;;37.10;8.88;;;9.90;93.70;;;;;;5045635;28;20428;-76
2021/03/22 01:07:43;;;;;;;35.80;8.73;;;9.90;93.80;;;;;;5041808;28;20433;-77
2021/03/22 01:10:24;;;;;;;33.00;8.35;;;9.90;94.00;;;;;;5045267;28;20425;-76
2021/03/22 01:12:51;;;;;;;32.77;8.60;;;9.90;94.00;;;;;;5044229;28;20436;-74
2021/03/22 01:15:18;;;;;;;36.38;9.20;;;9.90;94.10;;;;;;5026717;28;20563;-76
2021/03/22 01:17:45;;;;;;;35.78;8.82;;;9.90;94.10;;;;;;5046693;28;21142;-75
2021/03/22 01:20:14;;;;;;;35.20;8.45;;;9.90;94.20;;;;;;5045822;28;20920;-75
2021/03/22 01:22:40;;;;;;;39.00;9.07;;;9.90;94.20;;;;;;5047527;28;20437;-76
2021/03/22 01:25:11;;;;;;;37.53;9.10;;;9.90;94.30;;;;;;5045212;28;20452;-75
2021/03/22 01:27:39;;;;;;;34.38;8.10;;;9.90;94.30;;;;;;5045423;28;20433;-76
2021/03/22 01:30:13;;;;;;;32.22;8.23;;;10.00;94.30;;;;;;5046944;28;20420;-75
2021/03/22 01:32:39;;;;;;;36.75;8.52;;;9.90;94.20;;;;;;5046982;28;20429;-74
2021/03/22 01:35:07;;;;;;;35.77;8.83;;;10.00;94.40;;;;;;5045990;28;20921;-75
2021/03/22 01:37:33;;;;;;;37.47;8.07;;;10.00;94.60;;;;;;5043920;28;20425;-74
2021/03/22 01:40:00;;;;;;;38.85;8.10;;;10.00;94.50;;;;;;5043308;28;20893;-75
2021/03/22 01:42:38;;;;;;;32.40;8.27;;;10.00;94.40;;;;;;5047838;28;20527;-75
2021/03/22 01:45:08;;;;;;;29.37;7.77;;;10.00;94.30;;;;;;5027523;28;20837;-76
2021/03/22 01:47:37;;;;;;;31.90;7.40;;;9.90;94.20;;;;;;5045598;28;20445;-75
2021/03/22 01:50:07;;;;;;;31.08;7.88;;;9.90;94.00;;;;;;5043885;28;20429;-75
2021/03/22 01:52:36;;;;;;;32.97;7.30;;;10.00;93.90;;;;;;5026554;28;20432;-75
2021/03/22 01:55:04;;;;;;;36.92;7.63;;;9.90;93.90;;;;;;5045423;28;20421;-75
2021/03/22 01:57:34;;;;;;;32.30;7.38;;;9.90;93.90;;;;;;5029948;28;20428;-76
2021/03/22 02:00:14;;;;;;;34.22;7.07;;;10.00;94.10;;;;;;5044670;28;20465;-75
2021/03/22 02:02:43;;;;;;;36.28;7.68;;;9.90;94.20;;;;;;5043879;28;20824;-76
2021/03/22 02:05:12;;;;;;;32.63;7.03;;;9.90;94.30;;;;;;5045512;28;20436;-75
2021/03/22 02:07:39;;;;;;;35.08;7.22;;;9.90;94.40;;;;;;5042389;28;20903;-75
2021/03/22 02:10:07;;;;;;;35.38;7.10;;;9.90;94.60;;;;;;5028559;28;20921;-75
2021/03/22 02:12:35;;;;;;;35.10;6.85;;;9.90;94.70;;;;;;5040995;28;20429;-75
2021/03/22 02:15:01;;;;;;;32.05;7.25;;;9.90;94.70;;;;;;5043403;28;20433;-75
2021/03/22 02:17:34;;;;;;;35.95;6.70;;;9.90;94.80;;;;;;5045580;28;20425;-75
2021/03/22 02:20:31;;;;;;;31.17;6.78;;;9.90;94.90;;;;;;5043123;28;20425;-77
2021/03/22 02:23:32;;;;;;;30.70;6.50;;;9.90;94.80;;;;;;5027489;28;20441;-75
2021/03/22 02:26:05;;;;;;;32.80;6.67;;;9.90;94.70;;;;;;5040526;28;20421;-76
2021/03/22 02:28:56;;;;;;;30.80;6.07;;;9.90;94.60;;;;;;5043103;28;20522;-75
2021/03/22 02:31:50;;;;;;;31.63;6.43;;;9.90;94.50;;;;;;5040012;28;20425;-76
2021/03/22 02:34:26;;;;;;;32.63;6.53;;;9.90;94.50;;;;;;5016538;28;20433;-76
2021/03/22 02:37:02;;;;;;;28.75;6.22;;;10.00;94.40;;;;;;5046617;28;20894;-76
2021/03/22 02:39:33;;;;;;;34.83;6.53;;;10.00;94.10;;;;;;5046025;28;20425;-75
2021/03/22 02:42:01;;;;;;;28.75;6.03;;;9.90;94.00;;;;;;5045566;28;20421;-75
2021/03/22 02:44:30;;;;;;;29.27;6.45;;;9.90;94.00;;;;;;5045660;28;20421;-76
2021/03/22 02:46:59;;;;;;;25.55;5.70;;;9.90;93.90;;;;;;5046381;28;20813;-76
2021/03/22 02:49:29;;;;;;;31.08;5.63;;;9.90;94.00;;;;;;5046167;28;20421;-75
2021/03/22 02:52:06;;;;;;;27.67;6.20;;;9.90;93.80;;;;;;5045474;28;21096;-77
2021/03/22 02:54:42;;;;;;;28.23;5.65;;;9.90;93.80;;;;;;5045499;28;20494;-74
2021/03/22 02:57:20;;;;;;;24.17;5.10;;;9.90;93.70;;;;;;5045149;28;20440;-73
2021/03/22 02:59:49;;;;;;;27.27;5.05;;;9.90;93.60;;;;;;5042016;28;20433;-74
2021/03/22 03:02:17;;;;;;;22.20;4.30;;;9.90;93.60;;;;;;5045720;28;20433;-74
2021/03/22 03:04:45;;;;;;;20.55;4.22;;;9.90;93.60;;;;;;5044528;28;20910;-74
2021/03/22 03:07:18;;;;;;;23.93;4.40;;;9.80;93.60;;;;;;5046897;28;20824;-75
2021/03/22 03:09:44;;;;;;;26.98;4.25;;;9.80;93.50;;;;;;5043961;28;20436;-74
2021/03/22 03:12:13;;;;;;;25.25;4.10;;;9.90;93.50;;;;;;5044429;28;20420;-76
2021/03/22 03:14:40;;;;;;;22.83;4.83;;;9.80;93.10;;;;;;5043451;28;20794;-75
2021/03/22 03:17:06;;;;;;;24.63;4.80;;;9.80;93.10;;;;;;5044601;28;20443;-75
2021/03/22 03:19:33;;;;;;;27.27;4.90;;;9.80;93.10;;;;;;5040096;28;20446;-74
2021/03/22 03:22:00;;;;;;;22.40;4.55;;;9.80;93.10;;;;;;5024006;28;20427;-75
2021/03/22 03:24:27;;;;;;;22.63;4.40;;;9.80;92.90;;;;;;5042547;28;20428;-73
2021/03/22 03:26:53;;;;;;;25.65;4.60;;;9.80;93.00;;;;;;5040443;28;20429;-76
2021/03/22 03:29:20;;;;;;;20.10;4.78;;;9.80;93.10;;;;;;5027321;28;20445;-73
2021/03/22 03:31:47;;;;;;;26.23;5.50;;;9.80;93.20;;;;;;5045808;28;20431;-75
2021/03/22 03:34:13;;;;;;;25.98;6.03;;;9.80;93.30;;;;;;5043205;28;20793;-75
2021/03/22 03:36:39;;;;;;;28.45;6.22;;;9.80;93.40;;;;;;5042847;28;20425;-73
2021/03/22 03:39:08;;;;;;;27.17;6.00;;;9.80;93.70;;;;;;5044097;28;20420;-73
2021/03/22 03:41:35;;;;;;;25.05;5.50;;;9.80;93.80;;;;;;5025931;28;20786;-73
2021/03/22 03:44:01;;;;;;;28.65;6.47;;;9.80;93.90;;;;;;5045740;28;21175;-74
2021/03/22 03:46:28;;;;;;;26.05;5.85;;;9.80;94.00;;;;;;5045194;28;20461;-75
2021/03/22 03:48:54;;;;;;;28.20;6.20;;;9.80;94.40;;;;;;5048536;28;20422;-77
2021/03/22 03:51:21;;;;;;;27.95;5.65;;;9.80;94.00;;;;;;5050032;28;20789;-74
2021/03/22 03:53:47;;;;;;;22.60;5.30;;;9.70;93.90;;;;;;5048237;28;20530;-74
2021/03/22 03:56:14;;;;;;;20.67;4.55;;;9.80;93.80;;;;;;5031803;28;20421;-74
2021/03/22 03:58:40;;;;;;;20.23;4.53;;;9.80;93.60;;;;;;5030447;28;20464;-75
2021/03/22 04:01:07;;;;;;;19.40;4.00;;;9.70;93.40;;;;;;5030557;28;20474;-75
2021/03/22 04:03:35;;;;;;;18.88;3.97;;;9.70;93.50;;;;;;5047060;28;20436;-74
2021/03/22 04:06:05;;;;;;;17.55;3.72;;;9.70;93.50;;;;;;5046812;28;20438;-74
2021/03/22 04:08:33;;;;;;;19.63;4.15;;;9.70;93.40;;;;;;5048150;28;20431;-73
2021/03/22 04:11:02;;;;;;;20.95;3.78;;;9.70;93.60;;;;;;5048067;28;20428;-75
2021/03/22 04:13:30;;;;;;;23.90;4.13;;;9.70;93.60;;;;;;5049191;28;20478;-75
2021/03/22 04:15:56;;;;;;;21.30;4.22;;;9.70;93.70;;;;;;5030417;28;20425;-75
2021/03/22 04:18:22;;;;;;;22.35;4.03;;;9.70;93.70;;;;;;5050008;28;20889;-75
2021/03/22 04:20:49;;;;;;;21.05;4.18;;;9.70;93.70;;;;;;5047050;28;20777;-75
2021/03/22 04:23:16;;;;;;;17.33;4.13;;;9.80;93.70;;;;;;5046411;28;20425;-74
2021/03/22 04:25:42;;;;;;;20.70;5.00;;;9.80;93.60;;;;;;5046310;28;20432;-75
2021/03/22 04:28:09;;;;;;;24.10;4.80;;;9.80;93.30;;;;;;5048262;28;20459;-74
2021/03/22 04:30:36;;;;;;;23.92;5.43;;;9.80;93.00;;;;;;5028145;28;20475;-75
2021/03/22 04:33:03;;;;;;;21.63;5.18;;;9.80;92.70;;;;;;5023599;28;20430;-76
2021/03/22 04:35:29;;;;;;;18.33;5.07;;;9.80;92.60;;;;;;5046774;28;20478;-74
2021/03/22 04:37:56;;;;;;;21.90;5.15;;;9.80;92.70;;;;;;5047808;28;20897;-75
2021/03/22 04:40:25;;;;;;;19.05;4.82;;;9.80;92.60;;;;;;5042703;28;20433;-74
2021/03/22 04:42:52;;;;;;;24.98;4.88;;;9.80;92.60;;;;;;5049282;28;20425;-75
2021/03/22 04:45:19;;;;;;;22.58;4.80;;;9.80;92.40;;;;;;5044827;28;20465;-74
2021/03/22 04:47:47;;;;;;;19.58;4.78;;;9.80;92.30;;;;;;5048506;28;20420;-75
2021/03/22 04:50:14;;;;;;;19.27;5.15;;;9.90;92.30;;;;;;5046125;28;20424;-75
2021/03/22 04:52:40;;;;;;;13.98;4.30;;;9.90;92.10;;;;;;5044829;28;20425;-75
2021/03/22 04:55:09;;;;;;;14.77;4.25;;;9.90;90.60;;;;;;5047697;28;20432;-75
2021/03/22 04:57:35;;;;;;;14.57;4.00;;;9.90;89.20;;;;;;5027470;28;20427;-75
2021/03/22 05:00:05;;;;;;;13.25;3.60;;;9.90;89.70;;;;;;5047981;28;20451;-75
2021/03/22 05:02:31;;;;;;;12.73;3.55;;;9.80;90.10;;;;;;5028746;28;20432;-75
2021/03/22 05:04:59;;;;;;;12.57;3.23;;;9.80;90.40;;;;;;5045536;28;20425;-75
2021/03/22 05:07:26;;;;;;;14.60;3.50;;;9.80;90.90;;;;;;5045646;28;20437;-75
2021/03/22 05:09:52;;;;;;;18.38;3.10;;;9.90;91.20;;;;;;5044252;28;20429;-75
2021/03/22 05:12:19;;;;;;;16.02;2.97;;;9.80;91.60;;;;;;5047545;28;20421;-75
2021/03/22 05:14:45;;;;;;;17.17;3.05;;;9.90;92.30;;;;;;5029602;28;20439;-75
2021/03/22 05:17:12;;;;;;;14.63;2.60;;;9.90;92.70;;;;;;5043966;28;20452;-74
2021/03/22 05:19:38;;;;;;;18.08;2.88;;;9.90;93.10;;;;;;5046832;28;20421;-75
2021/03/22 05:22:06;;;;;;;15.97;3.13;;;9.90;93.20;;;;;;5044900;28;20781;-75
2021/03/22 05:24:33;;;;;;;18.42;3.10;;;9.80;92.90;;;;;;5047865;28;20461;-75
2021/03/22 05:26:59;;;;;;;17.90;3.08;;;9.80;92.70;;;;;;5044746;28;20479;-75
2021/03/22 05:29:27;;;;;;;17.15;2.60;;;9.80;93.10;;;;;;5042471;28;20428;-74
2021/03/22 05:31:54;;;;;;;17.00;2.80;;;9.70;93.50;;;;;;5044965;28;20820;-75
2021/03/22 05:34:21;;;;;;;16.58;2.65;;;9.70;94.00;;;;;;5030481;28;20457;-75
2021/03/22 05:36:48;;;;;;;13.57;2.40;;;9.70;94.20;;;;;;5041305;28;20428;-75
2021/03/22 05:39:15;;;;;;;18.92;2.35;;;9.70;94.40;;;;;;5029641;28;20444;-75
2021/03/22 05:41:58;;;;;;;17.35;3.00;;;9.70;94.50;;;;;;5044371;28;20905;-75
2021/03/22 05:44:40;;;;;;;16.42;2.50;;;9.70;94.30;;;;;;5046600;28;20428;-75
2021/03/22 05:47:22;;;;;;;13.18;2.35;;;9.60;95.00;;;;;;5025898;28;20421;-75
2021/03/22 05:50:00;;;;;;;12.90;1.93;;;9.60;95.00;;;;;;5046210;28;20483;-74
2021/03/22 05:52:53;;;;;;;11.18;1.75;;;9.60;95.40;;;;;;5029180;28;20462;-75
2021/03/22 05:55:50;;;;;;;15.98;2.30;;;9.50;95.70;;;;;;5046520;28;22149;-74
2021/03/22 05:58:31;;;;;;;13.98;2.20;;;9.50;95.70;;;;;;5044267;28;20548;-74
2021/03/22 06:01:05;;;;;;;11.52;2.20;;;9.50;95.80;;;;;;5042704;28;20433;-75
2021/03/22 06:03:37;;;;;;;14.68;2.60;;;9.50;96.10;;;;;;5042891;28;20487;-74
2021/03/22 06:06:12;;;;;;;18.70;3.10;;;9.50;96.40;;;;;;5042508;28;20426;-75
2021/03/22 06:08:45;;;;;;;13.73;3.42;;;9.60;96.30;;;;;;5046349;28;20437;-75
2021/03/22 06:11:24;;;;;;;7.57;2.30;;;9.60;96.40;;;;;;5038544;28;20427;-74
2021/03/22 06:13:56;;;;;;;12.10;2.50;;;9.60;96.00;;;;;;5042429;28;20425;-74
2021/03/22 06:16:26;;;;;;;11.07;2.40;;;9.60;95.90;;;;;;5045478;28;23340;-75
2021/03/22 06:18:58;;;;;;;13.45;2.42;;;9.60;95.80;;;;;;5046049;28;20927;-74
2021/03/22 06:21:27;;;;;;;7.30;1.83;;;9.60;95.90;;;;;;5029993;28;20480;-76
2021/03/22 06:23:54;;;;;;;7.30;2.00;;;9.70;95.70;;;;;;5044095;28;20793;-74
2021/03/22 06:26:34;;;;;;;12.82;2.22;;;9.70;95.60;;;;;;5046072;28;20425;-74
2021/03/22 06:29:06;;;;;;;10.50;1.80;;;9.70;95.60;;;;;;5045310;28;22395;-76
2021/03/22 06:31:33;;;;;;;9.93;2.05;;;9.70;95.50;;;;;;5029880;28;20437;-74
2021/03/22 06:34:03;;;;;;;11.57;2.00;;;9.70;95.60;;;;;;5040816;28;21132;-74
2021/03/22 06:36:30;;;;;;;9.70;1.83;;;9.70;95.50;;;;;;5038908;28;20449;-75
2021/03/22 06:38:59;;;;;;;9.80;2.00;;;9.80;95.50;;;;;;5042445;28;20432;-75
2021/03/22 06:41:39;;;;;;;10.05;2.17;;;9.70;95.70;;;;;;5043314;28;20477;-75
2021/03/22 06:44:09;;;;;;;10.13;1.92;;;9.80;96.10;;;;;;5044171;28;20789;-75
2021/03/22 06:46:53;;;;;;;9.50;2.25;;;9.80;95.70;;;;;;5040136;28;20943;-75
2021/03/22 06:49:22;;;;;;;13.57;2.97;;;9.80;95.50;;;;;;5043146;28;20493;-75
2021/03/22 06:52:01;;;;;;;10.53;2.90;;;9.90;95.30;;;;;;5047277;28;20893;-76
2021/03/22 06:54:40;;;;;;;13.93;3.28;;;9.90;95.30;;;;;;5047483;28;20504;-75
2021/03/22 06:57:11;;;;;;;12.40;3.30;;;9.90;95.10;;;;;;5045401;28;20908;-74
2021/03/22 06:59:39;;;;;;;15.80;5.13;;;9.90;95.00;;;;;;5047039;28;20425;-76
2021/03/22 07:02:19;;;;;;;14.15;3.75;;;9.90;95.10;;;;;;5027490;28;20481;-76
2021/03/22 07:04:45;;;;;;;12.15;3.13;;;9.90;95.20;;;;;;5045674;28;20409;-77
2021/03/22 07:07:15;;;;;;;13.35;3.10;;;9.90;95.20;;;;;;5043558;28;20499;-76
2021/03/22 07:09:46;;;;;;;15.05;3.25;;;9.90;95.60;;;;;;5022906;28;20930;-77
2021/03/22 07:12:30;;;;;;;11.00;3.03;;;9.90;95.70;;;;;;5028820;28;20468;-76
2021/03/22 07:15:16;;;;;;;13.30;3.43;;;10.00;95.60;;;;;;5027490;28;20928;-76
2021/03/22 07:17:44;;;;;;;14.00;3.60;;;10.00;95.70;;;;;;5047170;28;20413;-76
2021/03/22 07:20:14;;;;;;;15.30;3.42;;;10.00;95.90;;;;;;5009692;28;20432;-76
2021/03/22 07:22:41;;;;;;;23.05;12.10;;;10.10;95.40;;;;;;5029279;28;20425;-76
2021/03/22 07:25:28;;;;;;;14.77;5.05;;;10.10;95.00;;;;;;5039489;28;20409;-76
2021/03/22 07:28:00;;;;;;;13.97;3.07;;;10.10;94.70;;;;;;5047642;28;20428;-76
2021/03/22 07:30:30;;;;;;;9.55;2.50;;;10.10;94.40;;;;;;5048286;28;20413;-77
2021/03/22 07:33:17;;;;;;;14.47;3.00;;;10.10;94.00;;;;;;5042856;28;20424;-76
2021/03/22 07:36:10;;;;;;;11.60;2.73;;;10.10;94.00;;;;;;5027845;28;20431;-76
2021/03/22 07:39:06;;;;;;;11.13;2.30;;;10.10;93.70;;;;;;5047120;28;20782;-77
2021/03/22 07:41:47;;;;;;;14.63;2.88;;;10.10;94.20;;;;;;5015021;28;20942;-76
2021/03/22 07:44:49;;;;;;;9.18;2.50;;;10.10;94.20;;;;;;5036988;28;20425;-76
2021/03/22 07:47:28;;;;;;;9.10;2.80;;;10.10;94.30;;;;;;5038676;28;20418;-75
2021/03/22 07:50:07;;;;;;;12.48;3.00;;;10.10;94.20;;;;;;5039227;28;20437;-75
2021/03/22 07:52:39;;;;;;;16.23;2.60;;;10.10;94.40;;;;;;5031703;28;21776;-75
2021/03/22 07:55:30;;;;;;;12.30;1.80;;;10.10;94.80;;;;;;5046490;28;20441;-76
2021/03/22 07:58:01;;;;;;;8.18;1.70;;;10.10;94.70;;;;;;5030577;28;20782;-76
2021/03/22 08:00:40;;;;;;;6.40;2.30;;;10.10;95.00;;;;;;5035427;28;20433;-75
2021/03/22 08:03:26;;;;;;;3.37;1.57;;;10.10;94.80;;;;;;5044027;28;20430;-76
2021/03/22 08:06:17;;;;;;;6.50;1.77;;;10.10;94.40;;;;;;5029234;28;20417;-76
2021/03/22 08:09:00;;;;;;;4.43;1.17;;;10.00;94.60;;;;;;5038015;28;20451;-75
2021/03/22 08:11:35;;;;;;;4.45;1.33;;;10.00;94.10;;;;;;5026844;28;20425;-76
2021/03/22 08:14:11;;;;;;;4.57;1.20;;;10.00;94.20;;;;;;5042668;28;20429;-75
2021/03/22 08:17:07;;;;;;;6.03;1.20;;;10.00;93.80;;;;;;5044102;28;20428;-74
2021/03/22 08:19:39;;;;;;;6.25;1.48;;;10.10;94.10;;;;;;5027421;28;20720;-75
2021/03/22 08:22:15;;;;;;;4.05;1.40;;;10.10;94.70;;;;;;5043315;28;20534;-75
2021/03/22 08:24:53;;;;;;;6.45;1.20;;;10.20;95.30;;;;;;5045354;28;20429;-75
2021/03/22 08:27:22;;;;;;;4.20;1.00;;;10.30;95.10;;;;;;5023749;28;20933;-76
2021/03/22 08:29:53;;;;;;;3.40;0.90;;;10.30;95.60;;;;;;5045242;28;20817;-76
2021/03/22 08:32:39;;;;;;;4.80;1.13;;;10.30;96.10;;;;;;5025365;28;20491;-73
2021/03/22 08:35:15;;;;;;;3.15;0.80;;;10.20;95.80;;;;;;5031069;28;20508;-77
2021/03/22 08:37:46;;;;;;;2.47;0.80;;;10.20;95.90;;;;;;5046693;28;20455;-75
2021/03/22 08:40:17;;;;;;;3.75;0.77;;;10.20;96.00;;;;;;5043970;28;20707;-74
2021/03/22 08:42:47;;;;;;;4.60;1.15;;;10.20;96.30;;;;;;5044509;28;20833;-74
2021/03/22 08:45:20;;;;;;;3.00;1.00;;;10.20;96.40;;;;;;5047448;28;20428;-75
2021/03/22 08:47:52;;;;;;;3.30;0.85;;;10.20;96.10;;;;;;5047046;28;20421;-76
2021/03/22 08:50:21;;;;;;;2.75;0.93;;;10.20;95.50;;;;;;5047211;28;20429;-75
2021/03/22 08:52:54;;;;;;;3.55;1.20;;;10.30;95.10;;;;;;5047728;28;20428;-74
2021/03/22 08:55:23;;;;;;;5.82;1.35;;;10.20;95.00;;;;;;5045890;28;20801;-76
2021/03/22 08:57:59;;;;;;;5.72;1.33;;;10.20;95.60;;;;;;5045807;28;20460;-76
2021/03/22 09:00:44;;;;;;;5.70;1.20;;;10.30;96.00;;;;;;5046501;28;20479;-76
2021/03/22 09:03:28;;;;;;;6.20;1.27;;;10.40;96.20;;;;;;5047293;28;20444;-75
2021/03/22 09:06:12;;;;;;;4.57;1.40;;;10.60;95.30;;;;;;5030515;28;20441;-75
2021/03/22 09:08:40;;;;;;;6.15;1.95;;;10.60;94.40;;;;;;5047323;28;20962;-75
2021/03/22 09:11:24;;;;;;;6.07;3.17;;;10.60;94.50;;;;;;5046814;28;20433;-75
2021/03/22 09:13:54;;;;;;;12.80;6.15;;;10.60;95.60;;;;;;5042284;28;21140;-75
2021/03/22 09:16:41;;;;;;;13.35;4.93;;;10.50;95.20;;;;;;5046483;28;20428;-75
2021/03/22 09:19:30;;;;;;;9.93;3.45;;;10.40;95.80;;;;;;5043042;28;20440;-75
2021/03/22 09:22:36;;;;;;;5.75;2.80;;;10.30;96.10;;;;;;5021434;28;20834;-74
2021/03/22 09:25:04;;;;;;;4.73;2.10;;;10.20;96.30;;;;;;5047288;28;20475;-74
2021/03/22 09:27:33;;;;;;;7.72;2.92;;;10.20;96.60;;;;;;5028580;28;20441;-75
2021/03/22 09:30:36;;;;;;;8.63;2.90;;;10.20;96.30;;;;;;5027795;28;21061;-74
2021/03/22 09:33:04;;;;;;;5.07;2.13;;;10.20;96.50;;;;;;5037641;28;21445;-74
2021/03/22 09:36:12;;;;;;;3.47;1.50;;;10.30;96.20;;;;;;5046948;28;20698;-75
2021/03/22 09:38:46;;;;;;;5.87;2.00;;;10.40;95.20;;;;;;5024268;28;20801;-75
2021/03/22 09:41:13;;;;;;;4.90;2.50;;;10.50;95.40;;;;;;5027154;28;20483;-74
2021/03/22 09:43:43;;;;;;;5.67;2.80;;;10.50;95.10;;;;;;5043852;28;20446;-74
2021/03/22 09:46:28;;;;;;;4.10;1.25;;;10.60;95.30;;;;;;5043148;28;20437;-75
2021/03/22 09:49:15;;;;;;;6.70;2.45;;;10.70;93.60;;;;;;5028847;28;20501;-75
2021/03/22 09:51:46;;;;;;;10.98;3.90;;;10.80;93.30;;;;;;5045454;28;20893;-74
2021/03/22 09:54:34;;;;;;;11.30;5.57;;;10.80;93.70;;;;;;5043798;28;20445;-75
2021/03/22 09:57:40;;;;;;;11.60;5.38;;;10.80;92.70;;;;;;5042764;28;20433;-75
2021/03/22 10:00:19;;;;;;;13.50;5.20;;;10.80;92.60;;;;;;5037863;28;20408;-74
2021/03/22 10:02:49;;;;;;;10.32;3.35;;;10.80;92.70;;;;;;5047199;28;20898;-74
2021/03/22 10:05:20;;;;;;;9.52;3.67;;;10.80;92.40;;;;;;5042479;28;20431;-75
2021/03/22 10:07:59;;;;;;;13.23;4.80;;;10.80;92.30;;;;;;5045927;28;20444;-74
2021/03/22 10:10:31;;;;;;;11.88;5.05;;;10.80;92.50;;;;;;5044368;28;20482;-75
2021/03/22 10:13:02;;;;;;;12.63;6.40;;;10.80;92.20;;;;;;5043732;28;20483;-75
2021/03/22 10:15:33;;;;;;;9.77;6.55;;;10.90;92.30;;;;;;5044748;28;20490;-75
2021/03/22 10:18:05;;;;;;;10.75;5.68;;;10.90;91.90;;;;;;5044615;28;20440;-75
2021/03/22 10:20:37;;;;;;;6.28;2.80;;;10.90;91.70;;;;;;5044937;28;20440;-75
2021/03/22 10:23:11;;;;;;;5.90;2.87;;;10.80;91.00;;;;;;5041623;28;20465;-76
2021/03/22 10:25:42;;;;;;;7.47;3.30;;;10.80;91.60;;;;;;5043780;28;20441;-75
2021/03/22 10:28:18;;;;;;;9.30;3.00;;;10.80;91.80;;;;;;5044912;28;20464;-76
2021/03/22 10:30:54;;;;;;;4.47;1.83;;;10.80;92.10;;;;;;5045012;28;21000;-74
2021/03/22 10:33:21;;;;;;;4.85;1.52;;;10.90;91.50;;;;;;5045099;28;20428;-74
2021/03/22 10:35:50;;;;;;;4.38;1.05;;;10.90;91.20;;;;;;5045106;28;20421;-75
2021/03/22 10:38:19;;;;;;;4.35;1.20;;;10.90;91.50;;;;;;5027496;28;20433;-74
2021/03/22 10:40:47;;;;;;;4.72;1.05;;;10.90;91.20;;;;;;5045789;28;20480;-75
2021/03/22 10:43:25;;;;;;;3.90;1.00;;;10.90;90.90;;;;;;5046508;28;20425;-75
2021/03/22 10:45:51;;;;;;;2.50;0.90;;;10.90;91.40;;;;;;5042325;28;20481;-74
2021/03/22 10:48:31;;;;;;;4.63;1.00;;;10.90;91.30;;;;;;5041702;28;20460;-74
2021/03/22 10:51:13;;;;;;;3.05;0.60;;;11.00;90.90;;;;;;5025942;28;20967;-73
2021/03/22 10:53:56;;;;;;;4.40;0.90;;;11.10;90.70;;;;;;5027998;28;20495;-73
2021/03/22 10:56:28;;;;;;;3.08;0.68;;;11.10;90.40;;;;;;5026498;28;20433;-73
2021/03/22 10:58:56;;;;;;;3.10;0.80;;;11.20;90.30;;;;;;5045126;28;20436;-75
2021/03/22 11:01:23;;;;;;;1.95;0.65;;;11.30;90.00;;;;;;5044508;28;20506;-75
2021/03/22 11:03:50;;;;;;;3.05;0.80;;;11.30;89.30;;;;;;5027424;28;20428;-74
2021/03/22 11:06:31;;;;;;;4.25;0.70;;;11.30;89.30;;;;;;5043123;28;20425;-74
2021/03/22 11:09:00;;;;;;;1.55;0.55;;;11.30;90.20;;;;;;5045710;28;20894;-73
2021/03/22 11:11:30;;;;;;;4.70;0.80;;;11.30;90.00;;;;;;5041138;28;20432;-74
2021/03/22 11:14:00;;;;;;;1.98;0.70;;;11.40;90.10;;;;;;5044973;28;20436;-73
2021/03/22 11:16:29;;;;;;;2.97;0.75;;;11.50;89.80;;;;;;5043762;28;20424;-74
2021/03/22 11:18:57;;;;;;;2.87;0.57;;;11.40;89.40;;;;;;5045228;28;20429;-74
2021/03/22 11:21:25;;;;;;;3.17;0.80;;;11.50;90.00;;;;;;5039549;28;20433;-73
2021/03/22 11:23:54;;;;;;;1.88;0.68;;;11.50;88.10;;;;;;5042966;28;21267;-74
2021/03/22 11:26:24;;;;;;;1.55;0.63;;;11.50;87.20;;;;;;5042421;28;20789;-74
2021/03/22 11:29:13;;;;;;;1.92;0.55;;;11.60;86.70;;;;;;5044517;28;20429;-73
2021/03/22 11:31:41;;;;;;;0.82;0.35;;;11.70;85.90;;;;;;5043234;28;20429;-74
2021/03/22 11:34:15;;;;;;;4.20;0.70;;;11.80;84.30;;;;;;5044528;28;20509;-74
2021/03/22 11:36:44;;;;;;;1.55;0.60;;;11.90;83.10;;;;;;5044040;28;20893;-72
2021/03/22 11:39:21;;;;;;;2.00;0.60;;;11.90;82.40;;;;;;5043202;28;20517;-74
2021/03/22 11:42:04;;;;;;;3.75;0.50;;;11.90;81.20;;;;;;5043224;28;20429;-74
2021/03/22 11:44:34;;;;;;;2.80;0.60;;;12.00;82.80;;;;;;5027593;28;20433;-73
2021/03/22 11:47:23;;;;;;;4.88;0.80;;;12.00;81.20;;;;;;5022577;28;20418;-73
2021/03/22 11:49:51;;;;;;;2.22;0.60;;;12.10;80.60;;;;;;5023827;28;20968;-73
2021/03/22 11:52:20;;;;;;;1.77;0.60;;;12.10;80.70;;;;;;5022932;28;20426;-73
2021/03/22 11:54:48;;;;;;;3.90;0.70;;;12.10;80.30;;;;;;5022954;28;20422;-74
2021/03/22 11:57:19;;;;;;;1.48;0.40;;;12.10;80.40;;;;;;5018658;28;20786;-74
2021/03/22 11:59:51;;;;;;;0.77;0.40;;;12.20;80.40;;;;;;5018230;28;20532;-73
2021/03/22 12:02:24;;;;;;;1.42;0.50;;;12.20;79.30;;;;;;5022981;28;20507;-74
2021/03/22 12:04:53;;;;;;;2.28;0.40;;;12.30;77.50;;;;;;5026112;28;20488;-74
2021/03/22 12:07:38;;;;;;;1.48;0.40;;;12.30;75.80;;;;;;5020978;28;20422;-74
2021/03/22 12:10:14;;;;;;;3.75;0.57;;;12.30;75.10;;;;;;5023239;28;20431;-75
2021/03/22 12:12:41;;;;;;;1.83;0.60;;;12.40;76.60;;;;;;5027543;28;20895;-73
2021/03/22 12:15:09;;;;;;;2.80;0.50;;;12.40;76.10;;;;;;5028883;28;20764;-74
2021/03/22 12:17:38;;;;;;;3.10;0.70;;;12.40;76.10;;;;;;5027126;28;20437;-74
2021/03/22 12:20:06;;;;;;;3.15;0.75;;;12.40;76.30;;;;;;5028576;28;20441;-73
2021/03/22 12:22:35;;;;;;;4.60;0.60;;;12.30;76.80;;;;;;5025180;28;20432;-74
2021/03/22 12:25:01;;;;;;;2.63;0.60;;;12.20;75.50;;;;;;5029825;28;20422;-73
2021/03/22 12:27:27;;;;;;;7.82;0.88;;;12.20;74.80;;;;;;5025153;28;20430;-75
2021/03/22 12:29:54;;;;;;;2.55;0.50;;;12.10;75.10;;;;;;5026902;28;20430;-74
2021/03/22 12:32:24;;;;;;;2.45;0.60;;;12.10;74.80;;;;;;5029233;28;20492;-73
2021/03/22 12:34:51;;;;;;;1.55;0.50;;;12.10;75.00;;;;;;5031412;28;20877;-73
2021/03/22 12:37:25;;;;;;;1.52;0.80;;;12.10;74.80;;;;;;5027861;28;20441;-75
2021/03/22 12:39:51;;;;;;;1.23;0.45;;;12.00;72.80;;;;;;5022526;28;20969;-74
2021/03/22 12:42:19;;;;;;;3.15;0.43;;;12.00;74.20;;;;;;5025324;28;20518;-74
2021/03/22 12:44:46;;;;;;;2.80;0.80;;;12.00;74.20;;;;;;5022639;28;20825;-73
2021/03/22 12:47:17;;;;;;;2.13;0.60;;;11.90;75.00;;;;;;5031593;28;20427;-74
2021/03/22 12:49:43;;;;;;;3.22;0.40;;;11.90;75.20;;;;;;5023425;28;20482;-73
2021/03/22 12:52:10;;;;;;;3.73;0.53;;;11.90;74.50;;;;;;5048378;28;20440;-74
2021/03/22 12:54:37;;;;;;;3.38;0.68;;;11.90;74.40;;;;;;5027941;28;20438;-74
2021/03/22 12:57:04;;;;;;;2.55;0.40;;;11.90;74.70;;;;;;5046043;28;20502;-75
2021/03/22 12:59:33;;;;;;;2.10;0.50;;;11.90;73.60;;;;;;5029132;28;20828;-74
2021/03/22 13:02:02;;;;;;;2.37;0.67;;;11.80;73.90;;;;;;5027335;28;20434;-72
2021/03/22 13:04:30;;;;;;;2.50;0.60;;;11.80;74.70;;;;;;5047533;28;20429;-73
2021/03/22 13:06:56;;;;;;;1.52;0.60;;;11.70;74.10;;;;;;5029377;28;20420;-74
2021/03/22 13:09:24;;;;;;;4.20;0.63;;;11.70;74.70;;;;;;5047480;28;20425;-75
2021/03/22 13:11:50;;;;;;;4.68;0.50;;;11.60;75.20;;;;;;5028889;28;20758;-74